createdAt,value
2018-07-12T00:02:08.714Z,18.56
2018-07-12T00:04:36.647Z,18.60
2018-07-12T00:07:04.270Z,18.67
2018-07-12T00:09:31.882Z,18.58
2018-07-12T00:11:59.501Z,18.46
2018-07-12T00:14:27.152Z,18.37
2018-07-12T00:16:54.650Z,18.36
2018-07-12T00:19:22.090Z,18.45
2018-07-12T00:21:50.331Z,18.46
2018-07-12T00:24:18.818Z,18.45
2018-07-12T00:26:46.366Z,17.83
2018-07-12T00:29:14.068Z,18.35
2018-07-12T00:31:41.487Z,18.42
2018-07-12T00:34:08.947Z,18.52
2018-07-12T00:36:38.580Z,18.54
2018-07-12T00:39:07.067Z,18.42
2018-07-12T00:41:34.671Z,18.24
2018-07-12T00:44:03.085Z,18.22
2018-07-12T00:46:30.672Z,18.18
2018-07-12T00:48:58.644Z,18.22
2018-07-12T00:51:26.082Z,18.42
2018-07-12T00:53:53.825Z,18.53
2018-07-12T00:56:21.287Z,18.57
2018-07-12T00:58:49.371Z,18.65
2018-07-12T01:01:16.854Z,18.70
2018-07-12T01:03:44.497Z,18.55
2018-07-12T01:06:11.895Z,18.53
2018-07-12T01:08:39.336Z,18.50
2018-07-12T01:11:06.773Z,18.55
2018-07-12T01:13:34.451Z,18.50
2018-07-12T01:16:01.890Z,18.51
2018-07-12T01:18:29.432Z,18.58
2018-07-12T01:20:57.097Z,18.63
2018-07-12T01:23:24.520Z,18.40
2018-07-12T01:25:51.987Z,18.17
2018-07-12T01:28:19.840Z,18.13
2018-07-12T01:30:47.251Z,18.13
2018-07-12T01:33:14.715Z,18.11
2018-07-12T01:35:44.055Z,18.20
2018-07-12T01:38:11.543Z,18.25
2018-07-12T01:40:39.031Z,18.26
2018-07-12T01:43:06.733Z,18.21
2018-07-12T01:45:35.420Z,18.21
2018-07-12T01:48:02.897Z,18.22
2018-07-12T01:50:30.947Z,18.30
2018-07-12T01:52:58.367Z,18.39
2018-07-12T01:55:26.083Z,18.31
2018-07-12T01:57:54.103Z,18.22
2018-07-12T02:00:21.632Z,18.25
2018-07-12T02:02:49.395Z,18.31
2018-07-12T02:05:17.218Z,18.35
2018-07-12T02:07:44.717Z,18.32
2018-07-12T02:10:12.298Z,18.42
2018-07-12T02:12:40.009Z,18.30
2018-07-12T02:15:07.554Z,18.18
2018-07-12T02:17:35.067Z,18.28
2018-07-12T02:20:03.414Z,18.32
2018-07-12T02:22:30.866Z,18.37
2018-07-12T02:24:58.422Z,18.18
2018-07-12T02:27:25.980Z,18.04
2018-07-12T02:29:53.520Z,18.03
2018-07-12T02:32:21.059Z,18.04
2018-07-12T02:34:48.739Z,18.05
2018-07-12T02:37:16.261Z,17.84
2018-07-12T02:39:43.772Z,17.75
2018-07-12T02:42:11.244Z,17.79
2018-07-12T02:44:38.732Z,17.75
2018-07-12T02:47:06.143Z,17.65
2018-07-12T02:49:33.870Z,17.76
2018-07-12T02:52:01.363Z,17.90
2018-07-12T02:54:28.861Z,17.95
2018-07-12T02:56:56.391Z,17.89
2018-07-12T02:59:23.887Z,17.69
2018-07-12T03:01:51.376Z,17.50
2018-07-12T03:04:19.058Z,17.38
2018-07-12T03:06:47.478Z,17.21
2018-07-12T03:09:15.244Z,17.32
2018-07-12T03:11:42.827Z,17.47
2018-07-12T03:14:10.323Z,17.50
2018-07-12T03:16:38.634Z,17.54
2018-07-12T03:19:06.145Z,17.46
2018-07-12T03:21:33.824Z,17.36
2018-07-12T03:24:01.336Z,17.24
2018-07-12T03:26:28.807Z,17.05
2018-07-12T03:28:56.282Z,17.10
2018-07-12T03:31:23.747Z,17.19
2018-07-12T03:33:51.657Z,17.21
2018-07-12T03:36:19.177Z,17.20
2018-07-12T03:38:47.203Z,17.17
2018-07-12T03:41:14.688Z,17.15
2018-07-12T03:43:42.155Z,17.20
2018-07-12T03:46:09.639Z,17.24
2018-07-12T03:48:37.123Z,17.13
2018-07-12T03:51:04.615Z,17.07
2018-07-12T03:53:32.059Z,17.13
2018-07-12T03:55:59.716Z,16.91
2018-07-12T03:58:27.388Z,16.84
2018-07-12T04:00:54.855Z,16.97
2018-07-12T04:03:22.419Z,16.90
2018-07-12T04:05:49.879Z,17.07
2018-07-12T04:08:17.552Z,17.15
2018-07-12T04:10:45.009Z,17.28
2018-07-12T04:13:13.127Z,17.41
2018-07-12T04:15:40.809Z,17.40
2018-07-12T04:18:08.507Z,17.47
2018-07-12T04:20:35.943Z,17.47
2018-07-12T04:23:03.349Z,17.53
2018-07-12T04:25:30.702Z,17.57
2018-07-12T04:27:58.190Z,17.64
2018-07-12T04:30:25.907Z,17.75
2018-07-12T04:32:53.440Z,17.84
2018-07-12T04:35:20.821Z,17.93
2018-07-12T04:37:48.174Z,18.07
2018-07-12T04:40:15.546Z,18.13
2018-07-12T04:42:42.941Z,18.14
2018-07-12T04:45:10.333Z,18.19
2018-07-12T04:47:37.675Z,18.28
2018-07-12T04:50:05.062Z,18.31
2018-07-12T04:52:32.423Z,18.34
2018-07-12T04:54:59.779Z,18.48
2018-07-12T04:57:27.174Z,18.41
2018-07-12T04:59:54.536Z,18.53
2018-07-12T05:02:21.970Z,18.58
2018-07-12T05:04:49.443Z,18.76
2018-07-12T05:07:16.876Z,18.89
2018-07-12T05:09:44.238Z,18.98
2018-07-12T05:12:11.569Z,19.07
2018-07-12T05:14:39.049Z,19.18
2018-07-12T05:17:06.435Z,19.64
2018-07-12T05:19:33.788Z,20.06
2018-07-12T05:22:01.242Z,20.69
2018-07-12T05:24:28.574Z,21.25
2018-07-12T05:26:55.941Z,21.66
2018-07-12T05:29:23.327Z,21.79
2018-07-12T05:31:50.695Z,22.30
2018-07-12T05:34:18.096Z,22.81
2018-07-12T05:36:56.715Z,22.92
2018-07-12T05:39:25.487Z,23.02
2018-07-12T05:41:54.229Z,23.30
2018-07-12T05:44:23.051Z,23.76
2018-07-12T05:46:51.806Z,24.35
2018-07-12T05:49:20.798Z,24.82
2018-07-12T05:51:49.470Z,25.40
2018-07-12T05:54:19.194Z,25.71
2018-07-12T05:56:48.391Z,26.06
2018-07-12T05:59:17.652Z,25.84
2018-07-12T06:01:57.800Z,26.02
2018-07-12T06:04:26.445Z,26.30
2018-07-12T06:06:55.227Z,26.39
2018-07-12T06:09:23.927Z,26.55
2018-07-12T06:11:52.711Z,26.31
2018-07-12T06:14:21.430Z,26.03
2018-07-12T06:16:50.137Z,25.82
2018-07-12T06:19:18.965Z,25.89
2018-07-12T06:21:47.870Z,25.94
2018-07-12T06:24:16.701Z,26.38
2018-07-12T06:26:45.400Z,26.83
2018-07-12T06:29:14.077Z,26.98
2018-07-12T06:31:42.894Z,26.63
2018-07-12T06:34:11.611Z,26.63
2018-07-12T06:36:40.531Z,26.55
2018-07-12T06:39:11.140Z,26.35
2018-07-12T06:41:40.192Z,26.76
2018-07-12T06:44:08.859Z,26.85
2018-07-12T06:46:37.608Z,27.41
2018-07-12T06:49:06.526Z,27.22
2018-07-12T06:51:35.279Z,27.83
2018-07-12T06:54:04.646Z,27.56
2018-07-12T06:56:33.323Z,27.68
2018-07-12T06:59:02.012Z,28.04
2018-07-12T07:01:30.787Z,28.40
2018-07-12T07:03:59.811Z,27.84
2018-07-12T07:06:28.704Z,27.85
2018-07-12T07:08:57.720Z,28.22
2018-07-12T07:11:26.477Z,28.59
2018-07-12T07:13:55.411Z,28.63
2018-07-12T07:16:24.389Z,28.89
2018-07-12T07:18:53.091Z,28.79
2018-07-12T07:21:23.461Z,28.77
2018-07-12T07:23:52.944Z,28.93
2018-07-12T07:26:22.544Z,29.00
2018-07-12T07:28:51.421Z,29.08
2018-07-12T07:31:20.240Z,29.55
2018-07-12T07:33:49.063Z,29.38
2018-07-12T07:36:18.787Z,29.65
2018-07-12T07:38:47.566Z,30.23
2018-07-12T07:41:16.575Z,29.94
2018-07-12T07:43:45.403Z,30.21
2018-07-12T07:46:14.462Z,30.71
2018-07-12T07:48:44.530Z,30.79
2018-07-12T07:51:13.447Z,31.21
2018-07-12T07:53:42.548Z,30.85
2018-07-12T07:56:11.466Z,30.36
2018-07-12T07:58:40.427Z,30.65
2018-07-12T08:01:09.866Z,31.01
2018-07-12T08:03:38.909Z,31.42
2018-07-12T08:06:08.031Z,30.85
2018-07-12T08:08:36.942Z,30.55
2018-07-12T08:11:06.769Z,30.97
2018-07-12T08:13:35.484Z,31.03
2018-07-12T08:16:05.485Z,31.45
2018-07-12T08:18:34.352Z,32.01
2018-07-12T08:21:03.456Z,31.29
2018-07-12T08:23:33.770Z,31.32
2018-07-12T08:26:02.702Z,31.14
2018-07-12T08:28:32.066Z,31.02
2018-07-12T08:31:00.789Z,31.43
2018-07-12T08:33:29.715Z,32.47
2018-07-12T08:35:58.400Z,32.96
2018-07-12T08:38:27.227Z,33.84
2018-07-12T08:40:55.907Z,33.72
2018-07-12T08:43:24.704Z,34.27
2018-07-12T08:45:53.377Z,33.94
2018-07-12T08:48:22.179Z,32.25
2018-07-12T08:50:51.617Z,31.36
2018-07-12T08:53:21.351Z,31.77
2018-07-12T08:55:50.283Z,32.53
2018-07-12T08:58:19.191Z,32.91
2018-07-12T09:00:48.662Z,31.60
2018-07-12T09:03:18.125Z,30.99
2018-07-12T09:05:47.054Z,32.22
2018-07-12T09:08:16.021Z,32.93
2018-07-12T09:10:44.987Z,32.78
2018-07-12T09:13:13.790Z,32.78
2018-07-12T09:15:42.772Z,32.11
2018-07-12T09:18:11.590Z,32.78
2018-07-12T09:20:40.496Z,31.75
2018-07-12T09:23:10.384Z,31.57
2018-07-12T09:25:39.562Z,31.98
2018-07-12T09:28:08.295Z,32.06
2018-07-12T09:30:37.039Z,33.06
2018-07-12T09:33:06.388Z,33.48
2018-07-12T09:35:35.734Z,34.27
2018-07-12T09:38:06.111Z,34.07
2018-07-12T09:40:35.725Z,33.65
2018-07-12T09:43:04.904Z,33.45
2018-07-12T09:45:33.504Z,33.85
2018-07-12T09:48:02.999Z,33.62
2018-07-12T09:50:32.489Z,33.82
2018-07-12T09:53:01.389Z,33.04
2018-07-12T09:55:30.617Z,33.87
2018-07-12T09:58:11.168Z,33.51
2018-07-12T10:00:45.092Z,33.46
2018-07-12T10:03:18.910Z,33.74
2018-07-12T10:05:52.718Z,33.98
2018-07-12T10:08:26.645Z,33.71
2018-07-12T10:11:00.644Z,34.40
2018-07-12T10:13:33.554Z,33.86
2018-07-12T10:16:04.911Z,33.91
2018-07-12T10:18:34.136Z,33.80
2018-07-12T10:21:02.884Z,34.10
2018-07-12T10:23:31.729Z,34.20
2018-07-12T10:26:00.580Z,33.42
2018-07-12T10:28:29.772Z,33.04
2018-07-12T10:30:59.072Z,33.41
2018-07-12T10:33:29.006Z,33.67
2018-07-12T10:35:58.749Z,33.71
2018-07-12T10:38:27.583Z,34.04
2018-07-12T10:40:56.537Z,34.64
2018-07-12T10:43:25.289Z,33.88
2018-07-12T10:45:55.022Z,34.36
2018-07-12T10:48:24.044Z,34.46
2018-07-12T10:50:52.968Z,34.04
2018-07-12T10:53:22.296Z,33.54
2018-07-12T10:55:51.277Z,34.38
2018-07-12T10:58:20.956Z,34.51
2018-07-12T11:00:49.694Z,35.40
2018-07-12T11:03:19.383Z,35.82
2018-07-12T11:05:49.746Z,35.27
2018-07-12T11:08:18.760Z,35.11
2018-07-12T11:10:48.311Z,35.67
2018-07-12T11:13:18.813Z,35.67
2018-07-12T11:15:48.927Z,35.43
2018-07-12T11:18:18.805Z,36.39
2018-07-12T11:20:47.838Z,35.64
2018-07-12T11:23:16.651Z,35.44
2018-07-12T11:25:45.670Z,35.19
2018-07-12T11:28:14.513Z,34.92
2018-07-12T11:30:43.731Z,34.77
2018-07-12T11:33:51.347Z,34.19
2018-07-12T11:36:20.709Z,33.16
2018-07-12T11:38:49.609Z,33.28
2018-07-12T11:41:19.355Z,32.49
2018-07-12T11:43:48.778Z,32.18
2018-07-12T11:46:18.437Z,32.25
2018-07-12T11:48:47.628Z,33.45
2018-07-12T11:51:16.464Z,34.07
2018-07-12T11:53:45.611Z,33.80
2018-07-12T11:56:14.502Z,34.08
2018-07-12T11:58:43.728Z,33.67
2018-07-12T12:01:12.535Z,33.49
2018-07-12T12:03:41.270Z,33.54
2018-07-12T12:06:10.254Z,33.10
2018-07-12T12:08:40.064Z,33.93
2018-07-12T12:11:09.092Z,34.36
2018-07-12T12:13:38.482Z,34.38
2018-07-12T12:16:07.835Z,33.86
2018-07-12T12:18:37.295Z,33.32
2018-07-12T12:21:07.154Z,32.41
2018-07-12T12:23:36.545Z,32.74
2018-07-12T12:26:05.504Z,33.08
2018-07-12T12:28:34.383Z,33.20
2018-07-12T12:31:03.702Z,33.67
2018-07-12T12:33:32.649Z,33.50
2018-07-12T12:36:02.503Z,33.04
2018-07-12T12:38:31.754Z,32.64
2018-07-12T12:41:01.451Z,32.56
2018-07-12T12:43:30.747Z,32.39
2018-07-12T12:45:59.828Z,32.38
2018-07-12T12:48:48.075Z,32.46
2018-07-12T12:51:20.502Z,32.56
2018-07-12T12:53:51.669Z,32.73
2018-07-12T12:56:20.615Z,32.37
2018-07-12T12:58:50.087Z,32.43
2018-07-12T13:01:18.943Z,32.54
2018-07-12T13:03:47.776Z,32.54
2018-07-12T13:06:16.892Z,32.12
2018-07-12T13:08:46.725Z,32.25
2018-07-12T13:11:16.113Z,32.83
2018-07-12T13:13:45.398Z,32.94
2018-07-12T13:16:14.515Z,32.30
2018-07-12T13:18:43.546Z,31.97
2018-07-12T13:21:13.466Z,32.99
2018-07-12T13:23:43.595Z,33.97
2018-07-12T13:26:12.469Z,32.12
2018-07-12T13:28:41.717Z,30.31
2018-07-12T13:31:10.903Z,29.68
2018-07-12T13:33:39.790Z,29.08
2018-07-12T13:36:08.521Z,28.77
2018-07-12T13:38:37.341Z,29.15
2018-07-12T13:41:06.223Z,31.51
2018-07-12T13:43:35.184Z,31.02
2018-07-12T13:46:03.991Z,29.41
2018-07-12T13:48:32.786Z,28.84
2018-07-12T13:51:01.897Z,28.74
2018-07-12T13:53:30.742Z,28.55
2018-07-12T13:55:59.528Z,28.50
2018-07-12T13:58:28.344Z,28.55
2018-07-12T14:00:57.251Z,28.71
2018-07-12T14:03:26.064Z,28.86
2018-07-12T14:05:54.907Z,28.85
2018-07-12T14:08:23.728Z,28.92
2018-07-12T14:10:53.418Z,28.94
2018-07-12T14:13:22.579Z,28.90
2018-07-12T14:15:51.254Z,28.84
2018-07-12T14:18:20.113Z,28.95
2018-07-12T14:20:48.957Z,29.05
2018-07-12T14:23:17.935Z,29.01
2018-07-12T14:25:46.727Z,28.92
2018-07-12T14:28:16.180Z,28.62
2018-07-12T14:30:45.277Z,28.49
2018-07-12T14:33:14.204Z,28.33
2018-07-12T14:35:43.040Z,28.34
2018-07-12T14:38:11.923Z,28.26
2018-07-12T14:40:40.913Z,28.46
2018-07-12T14:43:09.870Z,28.55
2018-07-12T14:45:38.946Z,28.49
2018-07-12T14:48:07.891Z,28.49
2018-07-12T14:50:36.754Z,28.28
2018-07-12T14:53:05.603Z,28.23
2018-07-12T14:55:34.656Z,28.27
2018-07-12T14:58:03.855Z,28.16
2018-07-12T15:00:32.665Z,28.24
2018-07-12T15:03:02.740Z,28.39
2018-07-12T15:05:32.035Z,28.34
2018-07-12T15:08:00.820Z,28.39
2018-07-12T15:10:30.144Z,28.27
2018-07-12T15:12:59.826Z,28.24
2018-07-12T15:15:29.428Z,28.29
2018-07-12T15:17:58.096Z,28.02
2018-07-12T15:20:26.876Z,27.91
2018-07-12T15:23:00.984Z,27.89
2018-07-12T15:25:29.694Z,27.92
2018-07-12T15:27:58.515Z,28.06
2018-07-12T15:30:27.216Z,28.12
2018-07-12T15:33:05.677Z,28.22
2018-07-12T15:35:34.520Z,28.26
2018-07-12T15:38:16.967Z,28.16
2018-07-12T15:40:54.567Z,28.04
2018-07-12T15:43:23.419Z,27.99
2018-07-12T15:45:52.239Z,28.18
2018-07-12T15:48:30.600Z,28.17
2018-07-12T15:50:59.395Z,28.08
2018-07-12T15:53:28.066Z,28.09
2018-07-12T15:55:56.799Z,28.17
2018-07-12T15:58:25.468Z,28.13
2018-07-12T16:00:54.139Z,28.12
2018-07-12T16:03:22.892Z,28.07
2018-07-12T16:06:01.271Z,28.08
2018-07-12T16:08:29.935Z,28.00
2018-07-12T16:11:00.076Z,28.06
2018-07-12T16:13:41.358Z,28.09
2018-07-12T16:16:10.190Z,28.00
2018-07-12T16:18:38.831Z,28.01
2018-07-12T16:21:07.643Z,27.93
2018-07-12T16:23:45.823Z,27.90
2018-07-12T16:26:22.243Z,27.94
2018-07-12T16:28:50.929Z,27.94
2018-07-12T16:31:19.723Z,27.85
2018-07-12T16:33:48.598Z,27.79
2018-07-12T16:36:17.352Z,27.74
2018-07-12T16:38:46.066Z,27.63
2018-07-12T16:41:14.841Z,27.56
2018-07-12T16:43:43.669Z,27.51
2018-07-12T16:46:12.656Z,27.47
2018-07-12T16:48:41.393Z,27.45
2018-07-12T16:51:10.119Z,27.42
2018-07-12T16:53:38.815Z,27.41
2018-07-12T16:56:07.835Z,27.38
2018-07-12T16:58:36.608Z,27.41
2018-07-12T17:01:05.301Z,27.35
2018-07-12T17:03:34.216Z,27.18
2018-07-12T17:06:02.900Z,26.92
2018-07-12T17:08:31.619Z,27.10
2018-07-12T17:11:03.358Z,27.14
2018-07-12T17:13:40.318Z,27.09
2018-07-12T17:16:09.015Z,26.97
2018-07-12T17:18:38.315Z,26.92
2018-07-12T17:21:07.018Z,26.91
2018-07-12T17:23:35.975Z,26.85
2018-07-12T17:26:04.993Z,26.80
2018-07-12T17:28:34.026Z,26.76
2018-07-12T17:31:02.794Z,26.73
2018-07-12T17:33:31.921Z,26.63
2018-07-12T17:36:00.836Z,26.59
2018-07-12T17:38:29.552Z,26.55
2018-07-12T17:40:58.380Z,26.49
2018-07-12T17:43:27.152Z,26.43
2018-07-12T17:45:56.137Z,26.39
2018-07-12T17:48:24.888Z,26.33
2018-07-12T17:50:53.608Z,26.27
2018-07-12T17:53:28.120Z,26.25
2018-07-12T17:55:56.933Z,26.16
2018-07-12T17:58:25.785Z,26.07
2018-07-12T18:00:54.530Z,26.05
2018-07-12T18:03:23.247Z,26.02
2018-07-12T18:05:52.102Z,25.95
2018-07-12T18:08:20.855Z,25.84
2018-07-12T18:10:49.802Z,25.81
2018-07-12T18:13:18.799Z,25.65
2018-07-12T18:15:47.801Z,25.72
2018-07-12T18:18:16.697Z,25.69
2018-07-12T18:20:46.796Z,25.58
2018-07-12T18:23:15.528Z,25.56
2018-07-12T18:25:44.343Z,25.47
2018-07-12T18:28:13.404Z,25.42
2018-07-12T18:30:42.923Z,25.39
2018-07-12T18:33:11.735Z,25.38
2018-07-12T18:35:40.478Z,25.30
2018-07-12T18:38:09.741Z,25.18
2018-07-12T18:40:38.533Z,25.11
2018-07-12T18:43:07.360Z,25.03
2018-07-12T18:45:36.271Z,24.99
2018-07-12T18:48:04.940Z,24.95
2018-07-12T18:50:33.611Z,24.94
2018-07-12T18:53:02.282Z,24.93
2018-07-12T18:55:30.932Z,24.89
2018-07-12T18:57:59.556Z,24.83
2018-07-12T19:00:28.449Z,24.75
2018-07-12T19:02:57.188Z,24.74
2018-07-12T19:05:25.826Z,24.70
2018-07-12T19:07:54.501Z,24.66
2018-07-12T19:10:23.200Z,24.66
2018-07-12T19:12:51.887Z,24.66
2018-07-12T19:15:20.687Z,24.65
2018-07-12T19:17:49.326Z,24.60
2018-07-12T19:20:18.116Z,24.53
2018-07-12T19:22:46.903Z,24.43
2018-07-12T19:25:15.592Z,24.29
2018-07-12T19:27:44.376Z,24.15
2018-07-12T19:30:17.059Z,24.18
2018-07-12T19:32:45.851Z,24.21
2018-07-12T19:35:15.269Z,24.20
2018-07-12T19:37:44.021Z,24.20
2018-07-12T19:40:13.019Z,24.20
2018-07-12T19:42:41.700Z,24.14
2018-07-12T19:45:10.435Z,24.06
2018-07-12T19:47:39.171Z,24.04
2018-07-12T19:50:07.915Z,24.02
2018-07-12T19:52:36.588Z,24.01
2018-07-12T19:55:05.444Z,24.00
2018-07-12T19:57:34.292Z,23.95
2018-07-12T20:00:03.750Z,23.81
2018-07-12T20:02:32.794Z,23.60
2018-07-12T20:05:02.655Z,23.49
2018-07-12T20:07:31.399Z,23.53
2018-07-12T20:10:00.143Z,23.60
2018-07-12T20:12:28.981Z,23.59
2018-07-12T20:14:57.839Z,23.63
2018-07-12T20:17:29.828Z,23.53
2018-07-12T20:19:58.645Z,23.40
2018-07-12T20:22:41.840Z,23.40
2018-07-12T20:25:12.308Z,23.36
2018-07-12T20:27:41.382Z,23.37
2018-07-12T20:30:10.065Z,23.41
2018-07-12T20:32:38.809Z,23.25
2018-07-12T20:35:11.232Z,23.06
2018-07-12T20:37:40.456Z,21.24
2018-07-12T20:40:09.612Z,23.00
2018-07-12T20:42:38.288Z,23.05
2018-07-12T20:45:07.325Z,23.11
2018-07-12T20:47:36.374Z,23.08
2018-07-12T20:50:05.256Z,22.87
2018-07-12T20:52:34.143Z,22.69
2018-07-12T20:55:02.809Z,22.49
2018-07-12T20:57:31.499Z,22.64
2018-07-12T21:00:00.186Z,22.00
2018-07-12T21:03:14.534Z,22.44
2018-07-12T21:06:01.040Z,22.37
2018-07-12T21:08:29.743Z,22.25
2018-07-12T21:10:58.451Z,22.11
2018-07-12T21:13:27.212Z,22.08
2018-07-12T21:15:55.935Z,22.02
2018-07-12T21:18:25.496Z,21.78
2018-07-12T21:20:54.483Z,21.99
2018-07-12T21:23:23.259Z,21.95
2018-07-12T21:25:51.994Z,21.85
2018-07-12T21:28:20.703Z,21.81
2018-07-12T21:30:49.450Z,21.55
2018-07-12T21:33:18.255Z,21.40
2018-07-12T21:35:46.957Z,21.45
2018-07-12T21:38:15.660Z,21.60
2018-07-12T21:40:44.386Z,21.57
2018-07-12T21:43:13.063Z,21.49
2018-07-12T21:45:41.782Z,21.47
2018-07-12T21:48:10.480Z,21.48
2018-07-12T21:50:39.166Z,21.56
2018-07-12T21:53:07.859Z,21.46
2018-07-12T21:55:36.684Z,21.28
2018-07-12T21:58:05.367Z,21.31
2018-07-12T22:00:34.207Z,21.42
2018-07-12T22:03:02.991Z,21.48
2018-07-12T22:05:31.748Z,21.54
2018-07-12T22:08:40.703Z,18.04
2018-07-12T22:11:09.932Z,21.65
2018-07-12T22:13:38.949Z,21.67
2018-07-12T22:16:07.690Z,21.65
2018-07-12T22:18:36.400Z,21.64
2018-07-12T22:21:05.185Z,21.45
2018-07-12T22:23:33.894Z,21.41
2018-07-12T22:26:02.574Z,21.52
2018-07-12T22:28:31.508Z,21.61
2018-07-12T22:31:00.257Z,21.50
2018-07-12T22:33:28.945Z,21.45
2018-07-12T22:35:57.628Z,21.41
2018-07-12T22:38:26.534Z,21.40
2018-07-12T22:40:55.176Z,21.42
2018-07-12T22:43:23.871Z,21.42
2018-07-12T22:45:52.951Z,21.41
2018-07-12T22:48:21.996Z,21.35
2018-07-12T22:50:50.524Z,21.12
2018-07-12T22:53:19.168Z,20.92
2018-07-12T22:55:47.856Z,20.79
2018-07-12T22:58:16.482Z,20.67
2018-07-12T23:00:45.226Z,20.71
2018-07-12T23:03:13.916Z,20.71
2018-07-12T23:05:42.600Z,20.61
2018-07-12T23:08:11.279Z,20.62
2018-07-12T23:10:39.964Z,20.63
2018-07-12T23:13:08.658Z,20.58
2018-07-12T23:15:37.391Z,20.59
2018-07-12T23:18:06.162Z,20.54
2018-07-12T23:20:35.083Z,20.53
2018-07-12T23:23:03.777Z,20.49
2018-07-12T23:25:32.804Z,20.52
2018-07-12T23:28:01.799Z,20.60
2018-07-12T23:30:30.469Z,20.61
2018-07-12T23:32:59.148Z,20.56
2018-07-12T23:35:27.795Z,20.43
2018-07-12T23:37:56.440Z,20.45
2018-07-12T23:40:25.135Z,20.52
2018-07-12T23:42:54.124Z,20.46
2018-07-12T23:45:23.098Z,20.36
2018-07-12T23:47:51.754Z,20.34
2018-07-12T23:50:20.446Z,20.31
2018-07-12T23:52:49.151Z,20.25
2018-07-12T23:55:18.087Z,20.24
2018-07-12T23:57:46.754Z,20.13
